sensor_id;sensor_type;location;lat;lon;timestamp;temperature;humidity
18779;DHT22;9518;51.720;14.384;2022-12-18T00:02:20;-3.70;99.90
18779;DHT22;9518;51.720;14.384;2022-12-18T00:04:48;-3.80;99.90
18779;DHT22;9518;51.720;14.384;2022-12-18T00:07:15;-3.70;99.90
18779;DHT22;9518;51.720;14.384;2022-12-18T00:09:42;-3.80;99.90
18779;DHT22;9518;51.720;14.384;2022-12-18T00:12:09;-3.90;99.90
18779;DHT22;9518;51.720;14.384;2022-12-18T00:14:36;-3.90;99.90
18779;DHT22;9518;51.720;14.384;2022-12-18T00:17:04;-3.90;99.90
18779;DHT22;9518;51.720;14.384;2022-12-18T00:19:31;-3.90;99.90
18779;DHT22;9518;51.720;14.384;2022-12-18T00:21:58;-4.00;99.90
18779;DHT22;9518;51.720;14.384;2022-12-18T00:24:25;-4.00;99.90
18779;DHT22;9518;51.720;14.384;2022-12-18T00:26:52;-4.00;99.90
18779;DHT22;9518;51.720;14.384;2022-12-18T00:29:19;-4.00;99.90
18779;DHT22;9518;51.720;14.384;2022-12-18T00:31:46;-4.00;99.90
18779;DHT22;9518;51.720;14.384;2022-12-18T00:34:14;-4.00;99.90
18779;DHT22;9518;51.720;14.384;2022-12-18T00:36:41;-4.00;99.90
18779;DHT22;9518;51.720;14.384;2022-12-18T00:39:10;-4.00;99.90
18779;DHT22;9518;51.720;14.384;2022-12-18T00:41:37;-4.00;99.90
18779;DHT22;9518;51.720;14.384;2022-12-18T00:44:21;-4.00;99.90
18779;DHT22;9518;51.720;14.384;2022-12-18T00:46:48;-4.00;99.90
18779;DHT22;9518;51.720;14.384;2022-12-18T00:49:18;-4.00;99.90
18779;DHT22;9518;51.720;14.384;2022-12-18T00:51:45;-4.10;99.90
18779;DHT22;9518;51.720;14.384;2022-12-18T00:54:13;-4.10;99.90
18779;DHT22;9518;51.720;14.384;2022-12-18T00:56:40;-4.10;99.90
18779;DHT22;9518;51.720;14.384;2022-12-18T00:59:07;-4.00;99.90
18779;DHT22;9518;51.720;14.384;2022-12-18T01:01:34;-4.00;99.90
18779;DHT22;9518;51.720;14.384;2022-12-18T01:04:02;-4.00;99.90
18779;DHT22;9518;51.720;14.384;2022-12-18T01:06:31;-3.90;99.90
18779;DHT22;9518;51.720;14.384;2022-12-18T01:08:58;-3.80;99.90
18779;DHT22;9518;51.720;14.384;2022-12-18T01:11:25;-3.90;99.90
18779;DHT22;9518;51.720;14.384;2022-12-18T01:13:52;-3.90;99.90
18779;DHT22;9518;51.720;14.384;2022-12-18T01:16:20;-3.80;99.90
18779;DHT22;9518;51.720;14.384;2022-12-18T01:18:50;-3.90;99.90
18779;DHT22;9518;51.720;14.384;2022-12-18T01:21:17;-3.90;99.90
18779;DHT22;9518;51.720;14.384;2022-12-18T01:23:53;-3.90;99.90
18779;DHT22;9518;51.720;14.384;2022-12-18T01:26:21;-3.90;99.90
18779;DHT22;9518;51.720;14.384;2022-12-18T01:28:48;-3.90;99.90
18779;DHT22;9518;51.720;14.384;2022-12-18T01:31:18;-4.00;99.90
18779;DHT22;9518;51.720;14.384;2022-12-18T01:33:49;-4.00;99.90
18779;DHT22;9518;51.720;14.384;2022-12-18T01:36:18;-4.00;99.90
18779;DHT22;9518;51.720;14.384;2022-12-18T01:38:50;-4.00;99.90
18779;DHT22;9518;51.720;14.384;2022-12-18T01:41:22;-4.00;99.90
18779;DHT22;9518;51.720;14.384;2022-12-18T01:43:52;-3.90;99.90
18779;DHT22;9518;51.720;14.384;2022-12-18T01:46:21;-3.90;99.90
18779;DHT22;9518;51.720;14.384;2022-12-18T01:48:51;-3.90;99.90
18779;DHT22;9518;51.720;14.384;2022-12-18T01:51:19;-3.90;99.90
18779;DHT22;9518;51.720;14.384;2022-12-18T01:53:47;-3.90;99.90
18779;DHT22;9518;51.720;14.384;2022-12-18T01:56:17;-3.90;99.90
18779;DHT22;9518;51.720;14.384;2022-12-18T01:58:54;-3.80;99.90
18779;DHT22;9518;51.720;14.384;2022-12-18T02:01:24;-3.90;99.90
18779;DHT22;9518;51.720;14.384;2022-12-18T02:03:52;-3.80;99.90
18779;DHT22;9518;51.720;14.384;2022-12-18T02:06:21;-3.80;99.90
18779;DHT22;9518;51.720;14.384;2022-12-18T02:09:02;-3.80;99.90
18779;DHT22;9518;51.720;14.384;2022-12-18T02:11:40;-3.80;99.90
18779;DHT22;9518;51.720;14.384;2022-12-18T02:14:17;-3.80;99.90
18779;DHT22;9518;51.720;14.384;2022-12-18T02:16:49;-3.80;99.90
18779;DHT22;9518;51.720;14.384;2022-12-18T02:19:37;-3.80;99.90
18779;DHT22;9518;51.720;14.384;2022-12-18T02:22:17;-3.70;99.90
18779;DHT22;9518;51.720;14.384;2022-12-18T02:24:57;-3.80;99.90
18779;DHT22;9518;51.720;14.384;2022-12-18T02:27:28;-3.80;99.90
18779;DHT22;9518;51.720;14.384;2022-12-18T02:29:59;-3.90;99.90
18779;DHT22;9518;51.720;14.384;2022-12-18T02:32:30;-3.90;99.90
18779;DHT22;9518;51.720;14.384;2022-12-18T02:34:58;-3.90;99.90
18779;DHT22;9518;51.720;14.384;2022-12-18T02:37:28;-3.90;99.90
18779;DHT22;9518;51.720;14.384;2022-12-18T02:39:57;-3.90;99.90
18779;DHT22;9518;51.720;14.384;2022-12-18T02:42:27;-4.00;99.90
18779;DHT22;9518;51.720;14.384;2022-12-18T02:44:54;-4.10;99.90
18779;DHT22;9518;51.720;14.384;2022-12-18T02:47:23;-4.10;99.90
18779;DHT22;9518;51.720;14.384;2022-12-18T02:49:58;-4.00;99.90
18779;DHT22;9518;51.720;14.384;2022-12-18T02:52:31;-4.00;99.90
18779;DHT22;9518;51.720;14.384;2022-12-18T02:55:13;-4.00;99.90
18779;DHT22;9518;51.720;14.384;2022-12-18T02:57:48;-4.00;99.90
18779;DHT22;9518;51.720;14.384;2022-12-18T03:00:19;-4.00;99.90
18779;DHT22;9518;51.720;14.384;2022-12-18T03:02:51;-3.90;99.90
18779;DHT22;9518;51.720;14.384;2022-12-18T03:05:27;-3.90;99.90
18779;DHT22;9518;51.720;14.384;2022-12-18T03:07:58;-3.90;99.90
18779;DHT22;9518;51.720;14.384;2022-12-18T03:10:30;-3.80;99.90
18779;DHT22;9518;51.720;14.384;2022-12-18T03:13:03;-3.80;99.90
18779;DHT22;9518;51.720;14.384;2022-12-18T03:15:34;-3.80;99.90
18779;DHT22;9518;51.720;14.384;2022-12-18T03:18:04;-3.80;99.90
18779;DHT22;9518;51.720;14.384;2022-12-18T03:20:35;-3.90;99.90
18779;DHT22;9518;51.720;14.384;2022-12-18T03:23:07;-3.90;99.90
18779;DHT22;9518;51.720;14.384;2022-12-18T03:25:39;-3.90;99.90
18779;DHT22;9518;51.720;14.384;2022-12-18T03:28:12;-3.90;99.90
18779;DHT22;9518;51.720;14.384;2022-12-18T03:30:40;-3.90;99.90
18779;DHT22;9518;51.720;14.384;2022-12-18T03:33:12;-3.90;99.90
18779;DHT22;9518;51.720;14.384;2022-12-18T03:35:41;-3.90;99.90
18779;DHT22;9518;51.720;14.384;2022-12-18T03:38:09;-4.00;99.90
18779;DHT22;9518;51.720;14.384;2022-12-18T03:40:44;-4.00;99.90
18779;DHT22;9518;51.720;14.384;2022-12-18T03:43:18;-4.00;99.90
18779;DHT22;9518;51.720;14.384;2022-12-18T03:45:52;-4.00;99.90
18779;DHT22;9518;51.720;14.384;2022-12-18T03:48:26;-4.00;99.90
18779;DHT22;9518;51.720;14.384;2022-12-18T03:50:57;-4.00;99.90
18779;DHT22;9518;51.720;14.384;2022-12-18T03:53:31;-4.20;99.90
18779;DHT22;9518;51.720;14.384;2022-12-18T03:56:00;-4.20;99.90
18779;DHT22;9518;51.720;14.384;2022-12-18T03:58:31;-4.10;99.90
18779;DHT22;9518;51.720;14.384;2022-12-18T04:01:02;-4.20;99.90
18779;DHT22;9518;51.720;14.384;2022-12-18T04:03:32;-4.20;99.90
18779;DHT22;9518;51.720;14.384;2022-12-18T04:06:01;-4.20;99.90
18779;DHT22;9518;51.720;14.384;2022-12-18T04:08:29;-4.20;99.90
18779;DHT22;9518;51.720;14.384;2022-12-18T04:10:56;-4.30;99.90
18779;DHT22;9518;51.720;14.384;2022-12-18T04:13:23;-4.20;99.90
18779;DHT22;9518;51.720;14.384;2022-12-18T04:15:52;-4.30;99.90
18779;DHT22;9518;51.720;14.384;2022-12-18T04:18:20;-4.30;99.90
18779;DHT22;9518;51.720;14.384;2022-12-18T04:20:47;-4.30;99.90
18779;DHT22;9518;51.720;14.384;2022-12-18T04:23:14;-4.30;99.90
18779;DHT22;9518;51.720;14.384;2022-12-18T04:25:41;-4.40;99.90
18779;DHT22;9518;51.720;14.384;2022-12-18T04:28:08;-4.30;99.90
18779;DHT22;9518;51.720;14.384;2022-12-18T04:30:35;-4.30;99.90
18779;DHT22;9518;51.720;14.384;2022-12-18T04:33:03;-4.20;99.90
18779;DHT22;9518;51.720;14.384;2022-12-18T04:35:30;-4.20;99.90
18779;DHT22;9518;51.720;14.384;2022-12-18T04:37:57;-4.20;99.90
18779;DHT22;9518;51.720;14.384;2022-12-18T04:40:24;-4.20;99.90
18779;DHT22;9518;51.720;14.384;2022-12-18T04:42:51;-4.20;99.90
18779;DHT22;9518;51.720;14.384;2022-12-18T04:45:20;-4.20;99.90
18779;DHT22;9518;51.720;14.384;2022-12-18T04:47:47;-4.20;99.90
18779;DHT22;9518;51.720;14.384;2022-12-18T04:50:15;-4.10;99.90
18779;DHT22;9518;51.720;14.384;2022-12-18T04:52:42;-4.20;99.90
18779;DHT22;9518;51.720;14.384;2022-12-18T04:55:09;-4.20;99.90
18779;DHT22;9518;51.720;14.384;2022-12-18T04:57:36;-4.20;99.90
18779;DHT22;9518;51.720;14.384;2022-12-18T05:00:04;-4.10;99.90
18779;DHT22;9518;51.720;14.384;2022-12-18T05:02:31;-4.20;99.90
18779;DHT22;9518;51.720;14.384;2022-12-18T05:04:58;-4.20;99.90
18779;DHT22;9518;51.720;14.384;2022-12-18T05:07:27;-4.10;99.90
18779;DHT22;9518;51.720;14.384;2022-12-18T05:09:54;-4.10;99.90
18779;DHT22;9518;51.720;14.384;2022-12-18T05:12:24;-4.20;99.90
18779;DHT22;9518;51.720;14.384;2022-12-18T05:14:51;-4.00;99.90
18779;DHT22;9518;51.720;14.384;2022-12-18T05:17:18;-4.10;99.90
18779;DHT22;9518;51.720;14.384;2022-12-18T05:19:45;-4.10;99.90
18779;DHT22;9518;51.720;14.384;2022-12-18T05:22:12;-4.10;99.90
18779;DHT22;9518;51.720;14.384;2022-12-18T05:24:40;-4.10;99.90
18779;DHT22;9518;51.720;14.384;2022-12-18T05:27:07;-4.10;99.90
18779;DHT22;9518;51.720;14.384;2022-12-18T05:29:34;-4.10;99.90
18779;DHT22;9518;51.720;14.384;2022-12-18T05:32:01;-4.10;99.90
18779;DHT22;9518;51.720;14.384;2022-12-18T05:34:28;-4.10;99.90
18779;DHT22;9518;51.720;14.384;2022-12-18T05:36:55;-4.10;99.90
18779;DHT22;9518;51.720;14.384;2022-12-18T05:39:22;-4.00;99.90
18779;DHT22;9518;51.720;14.384;2022-12-18T05:41:50;-4.10;99.90
18779;DHT22;9518;51.720;14.384;2022-12-18T05:44:17;-4.00;99.90
18779;DHT22;9518;51.720;14.384;2022-12-18T05:46:45;-4.20;99.90
18779;DHT22;9518;51.720;14.384;2022-12-18T05:49:12;-4.00;99.90
18779;DHT22;9518;51.720;14.384;2022-12-18T05:51:39;-4.10;99.90
18779;DHT22;9518;51.720;14.384;2022-12-18T05:54:05;-4.00;99.90
18779;DHT22;9518;51.720;14.384;2022-12-18T05:56:33;-4.00;99.90
18779;DHT22;9518;51.720;14.384;2022-12-18T05:59:01;-4.00;99.90
18779;DHT22;9518;51.720;14.384;2022-12-18T06:01:28;-4.00;99.90
18779;DHT22;9518;51.720;14.384;2022-12-18T06:03:55;-4.00;99.90
18779;DHT22;9518;51.720;14.384;2022-12-18T06:06:24;-4.00;99.90
18779;DHT22;9518;51.720;14.384;2022-12-18T06:08:51;-4.00;99.90
18779;DHT22;9518;51.720;14.384;2022-12-18T06:11:20;-4.00;99.90
18779;DHT22;9518;51.720;14.384;2022-12-18T06:13:50;-4.00;99.90
18779;DHT22;9518;51.720;14.384;2022-12-18T06:16:18;-4.00;99.90
18779;DHT22;9518;51.720;14.384;2022-12-18T06:18:45;-4.00;99.90
18779;DHT22;9518;51.720;14.384;2022-12-18T06:21:12;-4.00;99.90
18779;DHT22;9518;51.720;14.384;2022-12-18T06:23:41;-4.00;99.90
18779;DHT22;9518;51.720;14.384;2022-12-18T06:26:10;-4.00;99.90
18779;DHT22;9518;51.720;14.384;2022-12-18T06:28:38;-4.10;99.90
18779;DHT22;9518;51.720;14.384;2022-12-18T06:31:06;-4.00;99.90
18779;DHT22;9518;51.720;14.384;2022-12-18T06:33:35;-4.10;99.90
18779;DHT22;9518;51.720;14.384;2022-12-18T06:36:02;-4.10;99.90
18779;DHT22;9518;51.720;14.384;2022-12-18T06:38:31;-4.10;99.90
18779;DHT22;9518;51.720;14.384;2022-12-18T06:40:58;-4.10;99.90
18779;DHT22;9518;51.720;14.384;2022-12-18T06:43:25;-4.10;99.90
18779;DHT22;9518;51.720;14.384;2022-12-18T06:46:00;-4.00;99.90
18779;DHT22;9518;51.720;14.384;2022-12-18T06:48:27;-4.00;99.90
18779;DHT22;9518;51.720;14.384;2022-12-18T06:50:56;-4.00;99.90
18779;DHT22;9518;51.720;14.384;2022-12-18T06:53:23;-4.00;99.90
18779;DHT22;9518;51.720;14.384;2022-12-18T06:55:50;-4.00;99.90
18779;DHT22;9518;51.720;14.384;2022-12-18T06:58:17;-4.00;99.90
18779;DHT22;9518;51.720;14.384;2022-12-18T07:00:44;-4.00;99.90
18779;DHT22;9518;51.720;14.384;2022-12-18T07:03:12;-4.00;99.90
18779;DHT22;9518;51.720;14.384;2022-12-18T07:05:40;-4.00;99.90
18779;DHT22;9518;51.720;14.384;2022-12-18T07:08:08;-4.00;99.90
18779;DHT22;9518;51.720;14.384;2022-12-18T07:10:41;-3.90;99.90
18779;DHT22;9518;51.720;14.384;2022-12-18T07:13:08;-4.00;99.90
18779;DHT22;9518;51.720;14.384;2022-12-18T07:15:35;-4.00;99.90
18779;DHT22;9518;51.720;14.384;2022-12-18T07:18:03;-3.90;99.90
18779;DHT22;9518;51.720;14.384;2022-12-18T07:20:30;-3.90;99.90
18779;DHT22;9518;51.720;14.384;2022-12-18T07:22:57;-3.90;99.90
18779;DHT22;9518;51.720;14.384;2022-12-18T07:25:25;-3.80;99.90
18779;DHT22;9518;51.720;14.384;2022-12-18T07:27:52;-3.90;99.90
18779;DHT22;9518;51.720;14.384;2022-12-18T07:30:19;-3.80;99.90
18779;DHT22;9518;51.720;14.384;2022-12-18T07:32:46;-3.90;99.90
18779;DHT22;9518;51.720;14.384;2022-12-18T11:14:15;-3.20;99.90
18779;DHT22;9518;51.720;14.384;2022-12-18T11:16:46;-3.20;99.90
18779;DHT22;9518;51.720;14.384;2022-12-18T11:19:21;-3.10;99.90
18779;DHT22;9518;51.720;14.384;2022-12-18T11:21:50;-3.10;95.70
18779;DHT22;9518;51.720;14.384;2022-12-18T11:24:24;-3.20;99.90
18779;DHT22;9518;51.720;14.384;2022-12-18T11:26:54;-3.10;95.00
18779;DHT22;9518;51.720;14.384;2022-12-18T11:29:29;-3.30;93.30
18779;DHT22;9518;51.720;14.384;2022-12-18T11:32:21;-3.30;99.90
18779;DHT22;9518;51.720;14.384;2022-12-18T11:34:53;-3.20;99.60
18779;DHT22;9518;51.720;14.384;2022-12-18T11:37:24;-3.20;99.90
18779;DHT22;9518;51.720;14.384;2022-12-18T11:39:54;-3.10;99.90
18779;DHT22;9518;51.720;14.384;2022-12-18T11:42:25;-2.90;99.90
18779;DHT22;9518;51.720;14.384;2022-12-18T11:44:59;-3.00;59.90
18779;DHT22;9518;51.720;14.384;2022-12-18T11:47:35;-3.10;90.80
18779;DHT22;9518;51.720;14.384;2022-12-18T11:50:12;-3.20;93.60
18779;DHT22;9518;51.720;14.384;2022-12-18T11:52:40;-3.00;99.60
18779;DHT22;9518;51.720;14.384;2022-12-18T11:55:11;-2.90;73.70
18779;DHT22;9518;51.720;14.384;2022-12-18T11:57:48;-3.00;77.60
18779;DHT22;9518;51.720;14.384;2022-12-18T12:00:22;-3.00;74.30
18779;DHT22;9518;51.720;14.384;2022-12-18T12:03:07;-3.00;75.60
18779;DHT22;9518;51.720;14.384;2022-12-18T12:05:47;-3.00;58.10
18779;DHT22;9518;51.720;14.384;2022-12-18T12:08:22;-2.80;58.50
18779;DHT22;9518;51.720;14.384;2022-12-18T12:10:58;-2.70;50.00
18779;DHT22;9518;51.720;14.384;2022-12-18T12:13:40;-2.70;34.40
18779;DHT22;9518;51.720;14.384;2022-12-18T12:16:16;-2.80;29.80
18779;DHT22;9518;51.720;14.384;2022-12-18T12:18:54;-2.70;39.00
18779;DHT22;9518;51.720;14.384;2022-12-18T12:21:27;-2.60;47.30
18779;DHT22;9518;51.720;14.384;2022-12-18T12:24:00;-2.60;27.00
18779;DHT22;9518;51.720;14.384;2022-12-18T12:26:35;-2.60;36.80
18779;DHT22;9518;51.720;14.384;2022-12-18T12:29:18;-2.50;17.60
18779;DHT22;9518;51.720;14.384;2022-12-18T12:32:09;-2.50;23.90
18779;DHT22;9518;51.720;14.384;2022-12-18T12:34:48;-2.20;21.90
18779;DHT22;9518;51.720;14.384;2022-12-18T12:37:27;-2.20;1.00
18779;DHT22;9518;51.720;14.384;2022-12-18T12:39:56;-2.00;8.40
18779;DHT22;9518;51.720;14.384;2022-12-18T12:42:32;-2.10;1.00
18779;DHT22;9518;51.720;14.384;2022-12-18T12:45:21;-2.10;1.00
18779;DHT22;9518;51.720;14.384;2022-12-18T12:47:51;-2.40;1.00
18779;DHT22;9518;51.720;14.384;2022-12-18T12:50:20;-2.60;1.00
18779;DHT22;9518;51.720;14.384;2022-12-18T12:52:51;-2.80;1.00
18779;DHT22;9518;51.720;14.384;2022-12-18T12:55:21;-3.00;5.00
18779;DHT22;9518;51.720;14.384;2022-12-18T12:57:59;-3.30;14.90
18779;DHT22;9518;51.720;14.384;2022-12-18T13:00:31;-3.30;37.00
18779;DHT22;9518;51.720;14.384;2022-12-18T13:03:07;-3.40;64.20
18779;DHT22;9518;51.720;14.384;2022-12-18T13:05:41;-3.50;71.50
18779;DHT22;9518;51.720;14.384;2022-12-18T13:08:12;-3.60;66.70
18779;DHT22;9518;51.720;14.384;2022-12-18T13:10:48;-3.70;67.70
18779;DHT22;9518;51.720;14.384;2022-12-18T13:13:48;-3.80;89.50
18779;DHT22;9518;51.720;14.384;2022-12-18T13:16:18;-3.80;96.40
18779;DHT22;9518;51.720;14.384;2022-12-18T13:18:50;-3.80;82.90
18779;DHT22;9518;51.720;14.384;2022-12-18T13:21:23;-3.90;92.00
18779;DHT22;9518;51.720;14.384;2022-12-18T13:23:51;-3.90;99.90
18779;DHT22;9518;51.720;14.384;2022-12-18T13:26:36;-3.90;99.90
18779;DHT22;9518;51.720;14.384;2022-12-18T13:29:03;-4.00;99.90
18779;DHT22;9518;51.720;14.384;2022-12-18T13:31:58;-4.00;99.90
18779;DHT22;9518;51.720;14.384;2022-12-18T13:34:28;-4.10;99.90
18779;DHT22;9518;51.720;14.384;2022-12-18T13:37:35;-4.10;99.90
18779;DHT22;9518;51.720;14.384;2022-12-18T13:39:47;-4.20;99.90
18779;DHT22;9518;51.720;14.384;2022-12-18T13:42:37;-4.30;99.90
18779;DHT22;9518;51.720;14.384;2022-12-18T13:46:02;-4.30;99.90
18779;DHT22;9518;51.720;14.384;2022-12-18T13:48:31;-4.30;99.90
18779;DHT22;9518;51.720;14.384;2022-12-18T13:51:03;-4.40;99.90
18779;DHT22;9518;51.720;14.384;2022-12-18T13:53:34;-4.30;99.90
18779;DHT22;9518;51.720;14.384;2022-12-18T13:56:03;-4.40;99.90
18779;DHT22;9518;51.720;14.384;2022-12-18T13:58:30;-4.30;99.90
18779;DHT22;9518;51.720;14.384;2022-12-18T14:00:57;-4.30;99.90
18779;DHT22;9518;51.720;14.384;2022-12-18T14:03:29;-4.30;99.90
18779;DHT22;9518;51.720;14.384;2022-12-18T14:06:01;-4.30;99.90
18779;DHT22;9518;51.720;14.384;2022-12-18T14:08:37;-4.30;99.90
18779;DHT22;9518;51.720;14.384;2022-12-18T14:11:06;-4.30;99.90
18779;DHT22;9518;51.720;14.384;2022-12-18T14:13:37;-4.40;99.90
18779;DHT22;9518;51.720;14.384;2022-12-18T14:16:06;-4.60;99.90
18779;DHT22;9518;51.720;14.384;2022-12-18T14:18:43;-4.80;99.90
18779;DHT22;9518;51.720;14.384;2022-12-18T14:21:21;-4.90;99.90
18779;DHT22;9518;51.720;14.384;2022-12-18T14:23:48;-5.10;99.90
18779;DHT22;9518;51.720;14.384;2022-12-18T14:26:26;-5.30;99.90
18779;DHT22;9518;51.720;14.384;2022-12-18T14:28:55;-5.40;99.90
18779;DHT22;9518;51.720;14.384;2022-12-18T14:31:25;-5.50;99.90
18779;DHT22;9518;51.720;14.384;2022-12-18T14:33:52;-5.50;99.90
18779;DHT22;9518;51.720;14.384;2022-12-18T14:36:23;-5.50;99.90
18779;DHT22;9518;51.720;14.384;2022-12-18T14:38:52;-5.60;99.90
18779;DHT22;9518;51.720;14.384;2022-12-18T14:41:21;-5.70;99.90
18779;DHT22;9518;51.720;14.384;2022-12-18T14:43:50;-5.80;99.90
18779;DHT22;9518;51.720;14.384;2022-12-18T14:46:30;-5.80;99.90
18779;DHT22;9518;51.720;14.384;2022-12-18T14:48:59;-6.00;99.90
18779;DHT22;9518;51.720;14.384;2022-12-18T14:51:29;-6.10;99.90
18779;DHT22;9518;51.720;14.384;2022-12-18T14:53:59;-6.10;99.90
18779;DHT22;9518;51.720;14.384;2022-12-18T14:56:29;-6.20;99.90
18779;DHT22;9518;51.720;14.384;2022-12-18T14:58:58;-6.30;99.90
18779;DHT22;9518;51.720;14.384;2022-12-18T15:01:28;-6.30;99.90
18779;DHT22;9518;51.720;14.384;2022-12-18T15:03:57;-6.30;99.90
18779;DHT22;9518;51.720;14.384;2022-12-18T15:06:32;-6.40;99.90
18779;DHT22;9518;51.720;14.384;2022-12-18T15:09:00;-6.40;99.90
18779;DHT22;9518;51.720;14.384;2022-12-18T15:11:42;-6.40;99.90
18779;DHT22;9518;51.720;14.384;2022-12-18T15:14:31;-6.50;99.90
18779;DHT22;9518;51.720;14.384;2022-12-18T15:16:59;-6.60;99.90
18779;DHT22;9518;51.720;14.384;2022-12-18T15:19:34;-6.80;99.90
18779;DHT22;9518;51.720;14.384;2022-12-18T15:22:03;-6.80;99.90
18779;DHT22;9518;51.720;14.384;2022-12-18T15:24:31;-6.80;99.90
18779;DHT22;9518;51.720;14.384;2022-12-18T15:26:59;-6.80;99.90
18779;DHT22;9518;51.720;14.384;2022-12-18T15:29:28;-6.90;99.90
18779;DHT22;9518;51.720;14.384;2022-12-18T15:32:00;-6.90;99.90
18779;DHT22;9518;51.720;14.384;2022-12-18T15:34:28;-6.70;99.90
18779;DHT22;9518;51.720;14.384;2022-12-18T15:36:58;-6.90;99.90
18779;DHT22;9518;51.720;14.384;2022-12-18T15:39:26;-7.00;99.90
18779;DHT22;9518;51.720;14.384;2022-12-18T15:41:53;-7.10;99.90
18779;DHT22;9518;51.720;14.384;2022-12-18T15:44:38;-7.10;99.90
18779;DHT22;9518;51.720;14.384;2022-12-18T15:47:10;-7.10;99.90
18779;DHT22;9518;51.720;14.384;2022-12-18T15:49:37;-7.20;99.90
18779;DHT22;9518;51.720;14.384;2022-12-18T15:52:05;-7.20;99.90
18779;DHT22;9518;51.720;14.384;2022-12-18T15:54:34;-7.20;99.90
18779;DHT22;9518;51.720;14.384;2022-12-18T15:57:18;-7.30;99.90
18779;DHT22;9518;51.720;14.384;2022-12-18T15:59:52;-7.40;99.90
18779;DHT22;9518;51.720;14.384;2022-12-18T16:02:23;-7.50;99.90
18779;DHT22;9518;51.720;14.384;2022-12-18T16:04:50;-7.50;99.90
18779;DHT22;9518;51.720;14.384;2022-12-18T16:07:21;-7.60;99.90
18779;DHT22;9518;51.720;14.384;2022-12-18T16:09:49;-7.60;99.90
18779;DHT22;9518;51.720;14.384;2022-12-18T16:12:18;-7.80;99.90
18779;DHT22;9518;51.720;14.384;2022-12-18T16:14:46;-7.80;99.90
18779;DHT22;9518;51.720;14.384;2022-12-18T16:17:13;-7.80;99.90
18779;DHT22;9518;51.720;14.384;2022-12-18T16:19:40;-7.70;99.90
18779;DHT22;9518;51.720;14.384;2022-12-18T16:22:17;-7.80;99.90
18779;DHT22;9518;51.720;14.384;2022-12-18T16:24:45;-7.80;99.90
18779;DHT22;9518;51.720;14.384;2022-12-18T16:27:13;-7.80;99.90
18779;DHT22;9518;51.720;14.384;2022-12-18T16:29:40;-7.70;99.90
18779;DHT22;9518;51.720;14.384;2022-12-18T16:32:12;-7.80;99.90
18779;DHT22;9518;51.720;14.384;2022-12-18T16:34:40;-7.80;99.90
18779;DHT22;9518;51.720;14.384;2022-12-18T16:37:08;-7.80;99.90
18779;DHT22;9518;51.720;14.384;2022-12-18T16:39:36;-7.80;99.90
18779;DHT22;9518;51.720;14.384;2022-12-18T16:42:06;-8.00;99.90
18779;DHT22;9518;51.720;14.384;2022-12-18T16:44:35;-8.00;99.90
18779;DHT22;9518;51.720;14.384;2022-12-18T16:47:02;-8.00;99.90
18779;DHT22;9518;51.720;14.384;2022-12-18T16:49:29;-8.00;99.90
18779;DHT22;9518;51.720;14.384;2022-12-18T16:52:00;-8.00;99.90
18779;DHT22;9518;51.720;14.384;2022-12-18T16:54:28;-8.10;99.90
18779;DHT22;9518;51.720;14.384;2022-12-18T16:56:56;-8.00;99.90
18779;DHT22;9518;51.720;14.384;2022-12-18T16:59:23;-7.90;99.90
18779;DHT22;9518;51.720;14.384;2022-12-18T17:01:54;-8.00;99.90
18779;DHT22;9518;51.720;14.384;2022-12-18T17:04:22;-8.00;99.90
18779;DHT22;9518;51.720;14.384;2022-12-18T17:06:49;-8.10;99.90
18779;DHT22;9518;51.720;14.384;2022-12-18T17:09:19;-8.00;99.90
18779;DHT22;9518;51.720;14.384;2022-12-18T17:11:48;-8.00;99.90
18779;DHT22;9518;51.720;14.384;2022-12-18T17:14:17;-8.00;99.90
18779;DHT22;9518;51.720;14.384;2022-12-18T17:16:45;-8.00;99.90
18779;DHT22;9518;51.720;14.384;2022-12-18T17:19:13;-8.00;99.90
18779;DHT22;9518;51.720;14.384;2022-12-18T17:21:41;-7.90;99.90
18779;DHT22;9518;51.720;14.384;2022-12-18T17:24:08;-7.90;99.90
18779;DHT22;9518;51.720;14.384;2022-12-18T17:26:36;-7.90;99.90
18779;DHT22;9518;51.720;14.384;2022-12-18T17:29:03;-7.90;99.90
18779;DHT22;9518;51.720;14.384;2022-12-18T17:31:31;-7.80;99.90
18779;DHT22;9518;51.720;14.384;2022-12-18T17:33:58;-7.80;99.90
18779;DHT22;9518;51.720;14.384;2022-12-18T17:36:28;-7.60;99.90
18779;DHT22;9518;51.720;14.384;2022-12-18T17:38:58;-7.40;99.90
18779;DHT22;9518;51.720;14.384;2022-12-18T17:41:26;-7.40;99.90
18779;DHT22;9518;51.720;14.384;2022-12-18T17:43:55;-7.40;99.90
18779;DHT22;9518;51.720;14.384;2022-12-18T17:46:22;-7.30;99.90
18779;DHT22;9518;51.720;14.384;2022-12-18T17:48:50;-7.30;99.90
18779;DHT22;9518;51.720;14.384;2022-12-18T17:51:17;-7.20;99.90
18779;DHT22;9518;51.720;14.384;2022-12-18T17:53:46;-7.20;99.90
18779;DHT22;9518;51.720;14.384;2022-12-18T17:56:14;-7.10;99.90
18779;DHT22;9518;51.720;14.384;2022-12-18T17:58:41;-7.10;99.90
18779;DHT22;9518;51.720;14.384;2022-12-18T18:01:08;-7.10;99.90
18779;DHT22;9518;51.720;14.384;2022-12-18T18:03:35;-7.10;99.90
18779;DHT22;9518;51.720;14.384;2022-12-18T18:06:03;-7.10;99.90
18779;DHT22;9518;51.720;14.384;2022-12-18T18:08:31;-7.20;99.90
18779;DHT22;9518;51.720;14.384;2022-12-18T18:11:03;-7.10;99.90
18779;DHT22;9518;51.720;14.384;2022-12-18T18:13:44;-7.20;99.90
18779;DHT22;9518;51.720;14.384;2022-12-18T18:16:26;-7.20;99.90
18779;DHT22;9518;51.720;14.384;2022-12-18T18:18:56;-7.20;99.90
18779;DHT22;9518;51.720;14.384;2022-12-18T18:21:25;-7.20;99.90
18779;DHT22;9518;51.720;14.384;2022-12-18T18:23:52;-7.20;99.90
18779;DHT22;9518;51.720;14.384;2022-12-18T18:26:20;-7.10;99.90
18779;DHT22;9518;51.720;14.384;2022-12-18T18:28:48;-7.10;99.90
18779;DHT22;9518;51.720;14.384;2022-12-18T18:31:15;-7.10;99.90
18779;DHT22;9518;51.720;14.384;2022-12-18T18:33:42;-7.00;99.90
18779;DHT22;9518;51.720;14.384;2022-12-18T18:36:10;-7.10;99.90
18779;DHT22;9518;51.720;14.384;2022-12-18T18:38:37;-7.10;99.90
18779;DHT22;9518;51.720;14.384;2022-12-18T18:41:05;-7.00;99.90
18779;DHT22;9518;51.720;14.384;2022-12-18T18:43:34;-7.00;99.90
18779;DHT22;9518;51.720;14.384;2022-12-18T18:46:02;-7.00;99.90
18779;DHT22;9518;51.720;14.384;2022-12-18T18:48:31;-6.90;99.90
18779;DHT22;9518;51.720;14.384;2022-12-18T18:51:02;-7.00;99.90
18779;DHT22;9518;51.720;14.384;2022-12-18T18:53:29;-7.00;99.90
18779;DHT22;9518;51.720;14.384;2022-12-18T18:55:57;-7.00;99.90
18779;DHT22;9518;51.720;14.384;2022-12-18T18:58:25;-7.10;99.90
18779;DHT22;9518;51.720;14.384;2022-12-18T19:00:58;-7.00;99.90
18779;DHT22;9518;51.720;14.384;2022-12-18T19:03:26;-7.10;99.90
18779;DHT22;9518;51.720;14.384;2022-12-18T19:05:54;-7.10;99.90
18779;DHT22;9518;51.720;14.384;2022-12-18T19:08:26;-7.00;99.90
18779;DHT22;9518;51.720;14.384;2022-12-18T19:10:54;-7.20;99.90
18779;DHT22;9518;51.720;14.384;2022-12-18T19:13:24;-7.20;99.90
18779;DHT22;9518;51.720;14.384;2022-12-18T19:15:53;-7.20;99.90
18779;DHT22;9518;51.720;14.384;2022-12-18T19:18:22;-7.20;99.90
18779;DHT22;9518;51.720;14.384;2022-12-18T19:20:56;-7.20;99.90
18779;DHT22;9518;51.720;14.384;2022-12-18T19:23:24;-7.20;99.90
18779;DHT22;9518;51.720;14.384;2022-12-18T19:25:51;-7.10;99.90
18779;DHT22;9518;51.720;14.384;2022-12-18T19:28:21;-7.10;99.90
18779;DHT22;9518;51.720;14.384;2022-12-18T19:30:54;-7.10;99.90